createdAt,value
2019-05-18T00:01:45.791Z,21.10
2019-05-18T00:06:49.951Z,21.10
2019-05-18T00:11:54.543Z,21.10
2019-05-18T00:16:58.684Z,21.10
2019-05-18T00:22:02.848Z,21.00
2019-05-18T00:27:07.039Z,21.00
2019-05-18T00:32:11.214Z,21.00
2019-05-18T00:37:15.373Z,21.00
2019-05-18T00:42:19.540Z,21.00
2019-05-18T00:47:23.721Z,21.00
2019-05-18T00:52:27.877Z,20.90
2019-05-18T00:57:32.034Z,21.00
2019-05-18T01:02:36.295Z,20.90
2019-05-18T01:07:40.471Z,20.90
2019-05-18T01:12:44.637Z,20.90
2019-05-18T01:17:56.935Z,20.90
2019-05-18T01:22:54.794Z,20.90
2019-05-18T01:27:58.981Z,20.90
2019-05-18T01:33:03.414Z,20.90
2019-05-18T01:38:07.570Z,20.80
2019-05-18T01:43:11.765Z,20.80
2019-05-18T01:48:15.920Z,20.80
2019-05-18T01:53:20.088Z,20.80
2019-05-18T01:58:24.271Z,20.80
2019-05-18T02:03:28.599Z,20.80
2019-05-18T02:08:32.785Z,20.70
2019-05-18T02:13:36.947Z,20.70
2019-05-18T02:18:41.111Z,20.70
2019-05-18T02:23:45.279Z,20.70
2019-05-18T02:28:49.451Z,20.70
2019-05-18T02:33:53.686Z,20.70
2019-05-18T02:38:57.851Z,20.70
2019-05-18T02:44:03.651Z,20.70
2019-05-18T02:49:07.824Z,20.70
2019-05-18T02:54:12.237Z,20.60
2019-05-18T02:59:16.431Z,20.60
2019-05-18T03:04:20.593Z,20.60
2019-05-18T03:09:24.775Z,20.60
2019-05-18T03:14:35.342Z,20.60
2019-05-18T03:19:39.512Z,20.60
2019-05-18T03:24:43.723Z,20.50
2019-05-18T03:29:49.539Z,20.60
2019-05-18T03:34:53.725Z,20.60
2019-05-18T03:39:57.864Z,20.50
2019-05-18T03:45:02.055Z,20.50
2019-05-18T03:50:07.632Z,20.50
2019-05-18T03:55:11.977Z,20.50
2019-05-18T04:00:16.131Z,20.50
2019-05-18T04:05:20.330Z,20.50
2019-05-18T04:10:26.494Z,20.50
2019-05-18T04:15:30.651Z,20.50
2019-05-18T04:20:34.811Z,20.50
2019-05-18T04:25:42.937Z,20.50
2019-05-18T04:30:44.939Z,20.40
2019-05-18T04:35:49.073Z,20.40
2019-05-18T04:40:53.243Z,20.40
2019-05-18T04:45:57.452Z,20.50
2019-05-18T04:51:01.609Z,20.40
2019-05-18T04:56:05.789Z,20.50
2019-05-18T05:01:09.969Z,20.50
2019-05-18T05:06:14.398Z,20.50
2019-05-18T05:11:21.697Z,20.50
2019-05-18T05:16:25.886Z,20.50
2019-05-18T05:21:32.490Z,20.50
2019-05-18T05:26:39.320Z,20.50
2019-05-18T05:31:42.591Z,20.50
2019-05-18T05:36:46.843Z,20.60
2019-05-18T05:41:51.074Z,20.60
2019-05-18T05:46:55.264Z,20.70
2019-05-18T05:51:59.873Z,20.70
2019-05-18T05:57:04.260Z,20.80
2019-05-18T06:02:08.639Z,20.90
2019-05-18T06:07:12.856Z,21.00
2019-05-18T06:12:17.063Z,21.10
2019-05-18T06:17:21.224Z,21.20
2019-05-18T06:22:25.379Z,21.30
2019-05-18T06:27:29.588Z,21.50
2019-05-18T06:32:33.859Z,21.60
2019-05-18T06:37:38.036Z,21.70
2019-05-18T06:42:42.213Z,21.90
2019-05-18T06:47:48.381Z,22.00
2019-05-18T06:52:52.303Z,22.20
2019-05-18T06:57:58.285Z,22.30
2019-05-18T07:03:02.728Z,22.50
2019-05-18T07:08:06.843Z,22.60
2019-05-18T07:13:11.054Z,22.80
2019-05-18T07:18:15.260Z,23.00
2019-05-18T07:23:19.428Z,23.10
2019-05-18T07:28:23.636Z,23.30
2019-05-18T07:33:27.841Z,23.50
2019-05-18T07:38:32.023Z,23.60
2019-05-18T07:43:36.190Z,23.70
2019-05-18T07:48:40.395Z,23.90
2019-05-18T07:53:44.580Z,24.00
2019-05-18T07:58:48.750Z,24.10
2019-05-18T08:03:52.948Z,24.20
2019-05-18T08:08:57.153Z,24.30
2019-05-18T08:14:01.347Z,24.40
2019-05-18T08:19:05.528Z,24.50
2019-05-18T08:24:09.939Z,24.60
2019-05-18T08:29:14.298Z,24.60
2019-05-18T08:34:18.655Z,24.70
2019-05-18T08:39:23.047Z,24.80
2019-05-18T08:44:27.392Z,24.90
2019-05-18T08:49:31.742Z,25.00
2019-05-18T08:54:36.079Z,25.20
2019-05-18T08:59:40.431Z,25.30
2019-05-18T09:04:44.765Z,25.40
2019-05-18T09:09:49.160Z,25.50
2019-05-18T09:14:55.092Z,25.60
2019-05-18T09:19:59.466Z,25.70
2019-05-18T09:25:07.200Z,25.80
2019-05-18T09:30:12.271Z,25.90
2019-05-18T09:35:17.251Z,26.00
2019-05-18T09:40:22.998Z,26.00
2019-05-18T09:45:27.361Z,26.00
2019-05-18T09:50:31.730Z,25.90
2019-05-18T09:55:36.066Z,25.80
2019-05-18T10:00:40.427Z,25.60
2019-05-18T10:05:44.973Z,25.70
2019-05-18T10:10:49.317Z,25.60
2019-05-18T10:15:53.674Z,25.40
2019-05-18T10:20:58.023Z,25.30
2019-05-18T10:26:02.394Z,25.20
2019-05-18T10:31:06.756Z,25.10
2019-05-18T10:36:11.783Z,25.00
2019-05-18T10:41:16.482Z,25.00
2019-05-18T10:46:20.854Z,24.90
2019-05-18T10:51:25.231Z,24.80
2019-05-18T10:56:31.271Z,24.80
2019-05-18T11:01:35.806Z,24.70
2019-05-18T11:06:40.398Z,24.60
2019-05-18T11:11:44.745Z,24.60
2019-05-18T11:16:49.100Z,24.50
2019-05-18T11:21:53.468Z,24.50
2019-05-18T11:26:57.839Z,24.40
2019-05-18T11:32:02.214Z,24.30
2019-05-18T11:37:06.621Z,24.30
2019-05-18T11:42:10.981Z,24.30
2019-05-18T11:47:15.340Z,24.20
2019-05-18T11:52:19.702Z,24.10
2019-05-18T11:57:24.124Z,24.10
2019-05-18T12:02:28.525Z,24.10
2019-05-18T12:07:32.893Z,24.00
2019-05-18T12:12:37.276Z,24.00
2019-05-18T12:17:41.640Z,24.10
2019-05-18T12:22:46.011Z,24.10
2019-05-18T12:27:50.376Z,24.10
2019-05-18T12:32:54.748Z,24.10
2019-05-18T12:37:59.153Z,24.10
2019-05-18T12:43:03.517Z,24.10
2019-05-18T12:48:07.940Z,24.10
2019-05-18T12:53:13.220Z,24.10
2019-05-18T12:58:17.536Z,24.10
2019-05-18T13:03:22.151Z,24.10
2019-05-18T13:08:26.512Z,24.00
2019-05-18T13:13:30.884Z,24.00
2019-05-18T13:18:35.875Z,24.00
2019-05-18T13:23:40.319Z,24.10
2019-05-18T13:28:44.661Z,24.10
2019-05-18T13:33:49.032Z,24.10
2019-05-18T13:38:53.364Z,24.10
2019-05-18T13:43:57.708Z,24.00
2019-05-18T13:49:02.072Z,24.00
2019-05-18T13:54:06.460Z,24.00
2019-05-18T13:59:10.805Z,24.00
2019-05-18T14:04:15.168Z,23.90
2019-05-18T14:09:19.506Z,23.90
2019-05-18T14:14:23.856Z,23.90
2019-05-18T14:19:28.232Z,23.90
2019-05-18T14:24:32.565Z,23.80
2019-05-18T14:29:36.927Z,23.80
2019-05-18T14:34:41.295Z,23.80
2019-05-18T14:39:45.722Z,23.80
2019-05-18T14:44:50.190Z,23.70
2019-05-18T14:49:56.637Z,23.70
2019-05-18T14:55:01.095Z,23.70
2019-05-18T15:00:07.938Z,23.70
2019-05-18T15:05:12.703Z,23.60
2019-05-18T15:10:17.429Z,23.60
2019-05-18T15:15:21.911Z,23.60
2019-05-18T15:20:26.263Z,23.60
2019-05-18T15:25:30.656Z,23.60
2019-05-18T15:30:35.017Z,23.60
2019-05-18T15:35:39.389Z,23.60
2019-05-18T15:40:43.923Z,23.60
2019-05-18T15:45:48.301Z,23.60
2019-05-18T15:50:52.660Z,23.60
2019-05-18T15:56:05.278Z,23.60
2019-05-18T16:01:03.261Z,23.50
2019-05-18T16:06:07.647Z,23.50
2019-05-18T16:11:11.998Z,23.50
2019-05-18T16:16:16.349Z,23.50
2019-05-18T16:21:20.707Z,23.50
2019-05-18T16:26:25.099Z,23.50
2019-05-18T16:31:29.535Z,23.50
2019-05-18T16:36:33.962Z,23.50
2019-05-18T16:41:38.306Z,23.40
2019-05-18T16:46:42.679Z,23.40
2019-05-18T16:51:47.065Z,23.40
2019-05-18T16:56:51.429Z,23.40
2019-05-18T17:01:55.902Z,23.40
2019-05-18T17:07:00.242Z,23.30
2019-05-18T17:12:04.671Z,23.30
2019-05-18T17:17:09.040Z,23.30
2019-05-18T17:22:13.397Z,23.30
2019-05-18T17:27:17.762Z,23.30
2019-05-18T17:32:22.132Z,23.30
2019-05-18T17:37:26.633Z,23.30
2019-05-18T17:42:30.985Z,23.40
2019-05-18T17:47:35.451Z,23.40
2019-05-18T17:52:39.855Z,23.40
2019-05-18T17:57:44.196Z,23.40
2019-05-18T18:02:48.591Z,23.40
2019-05-18T18:07:55.525Z,23.40
2019-05-18T18:12:59.066Z,23.40
2019-05-18T18:18:03.421Z,23.40
2019-05-18T18:23:08.484Z,23.30
2019-05-18T18:28:12.995Z,23.30
2019-05-18T18:33:17.435Z,23.30
2019-05-18T18:38:21.780Z,23.30
2019-05-18T18:43:26.214Z,23.20
2019-05-18T18:48:30.568Z,23.20
2019-05-18T18:53:34.939Z,23.20
2019-05-18T18:58:42.419Z,23.20
2019-05-18T19:03:46.961Z,23.20
2019-05-18T19:08:51.328Z,23.10
2019-05-18T19:13:55.673Z,23.10
2019-05-18T19:19:00.027Z,23.10
2019-05-18T19:24:04.475Z,23.10
2019-05-18T19:29:09.098Z,23.00
2019-05-18T19:34:13.660Z,23.00
2019-05-18T19:39:17.967Z,23.00
2019-05-18T19:44:24.045Z,23.00
2019-05-18T19:49:28.525Z,23.00
2019-05-18T19:54:33.002Z,23.00
2019-05-18T19:59:37.362Z,23.00
2019-05-18T20:04:41.755Z,22.90
2019-05-18T20:09:46.169Z,22.90
2019-05-18T20:14:50.603Z,22.90
2019-05-18T20:19:54.967Z,22.90
2019-05-18T20:24:59.355Z,22.90
2019-05-18T20:30:04.664Z,22.90
2019-05-18T20:35:09.005Z,22.90
2019-05-18T20:40:13.899Z,22.80
2019-05-18T20:45:18.340Z,22.80
2019-05-18T20:50:22.685Z,22.80
2019-05-18T20:55:27.023Z,22.80
2019-05-18T21:00:31.383Z,22.80
2019-05-18T21:05:35.764Z,22.80
2019-05-18T21:10:40.116Z,22.70
2019-05-18T21:15:44.520Z,22.80
2019-05-18T21:20:48.961Z,22.70
2019-05-18T21:25:53.359Z,22.70
2019-05-18T21:30:57.671Z,22.70
2019-05-18T21:36:02.036Z,22.70
2019-05-18T21:41:06.451Z,22.70
2019-05-18T21:46:10.790Z,22.70
2019-05-18T21:51:15.149Z,22.70
2019-05-18T21:56:19.502Z,22.70
2019-05-18T22:01:23.832Z,22.60
2019-05-18T22:06:28.182Z,22.60
2019-05-18T22:11:32.527Z,22.60
2019-05-18T22:16:36.887Z,22.60
2019-05-18T22:21:41.245Z,22.60
2019-05-18T22:26:45.596Z,22.60
2019-05-18T22:31:49.942Z,22.60
2019-05-18T22:36:54.286Z,22.60
2019-05-18T22:41:58.648Z,22.60
2019-05-18T22:47:03.004Z,22.60
2019-05-18T22:52:07.460Z,22.60
2019-05-18T22:57:11.820Z,22.60
2019-05-18T23:02:16.168Z,22.60
2019-05-18T23:07:20.525Z,22.60
2019-05-18T23:12:24.904Z,22.60
2019-05-18T23:17:29.263Z,22.60
2019-05-18T23:22:33.607Z,22.60
2019-05-18T23:27:39.510Z,22.60
2019-05-18T23:32:43.867Z,22.60
2019-05-18T23:37:48.238Z,22.60
2019-05-18T23:42:52.555Z,22.60
2019-05-18T23:47:59.485Z,22.50
2019-05-18T23:53:22.341Z,22.50
2019-05-18T23:58:26.676Z,22.50
